N2750B KOTH-KHIO
Flight info
| Callsign | N2750B |
|---|---|
| Flight time | 1h 12m |
| Altitude | 9000 |
| Route | OTH7 SCOTY V121 EUG V448 MAVER |
| Aircraft | C82R/L-VGD/C |
Departure
| Time | 2026-04-17 23:54 |
|---|---|
| Airport | Southwest Oregon Regional Airport (KOTH) |
Arrival
| Time | 2026-04-18 01:06 |
|---|---|
| Airport | Portland Hillsboro Airport (KHIO) |
| Time | Latitude | Longitude | Altitude | Speed | Heading |
|---|---|---|---|---|---|
| 2026-04-17 23:35 | 43.41483 | -124.24515 | 27 ft | 0 kts | 238° |
| 2026-04-17 23:48 | 43.41483 | -124.24518 | 29 ft | 1 kts | 300° |
| 2026-04-17 23:48 | 43.41486 | -124.24519 | 27 ft | 1 kts | 1° |
| 2026-04-17 23:48 | 43.41488 | -124.24519 | 27 ft | 0 kts | 11° |
| 2026-04-17 23:50 | 43.41499 | -124.24493 | 26 ft | 8 kts | 73° |
| 2026-04-17 23:50 | 43.41514 | -124.24404 | 25 ft | 11 kts | 115° |
| 2026-04-17 23:50 | 43.41447 | -124.24336 | 24 ft | 13 kts | 150° |
| 2026-04-17 23:50 | 43.41370 | -124.24276 | 24 ft | 12 kts | 149° |
| 2026-04-17 23:51 | 43.41294 | -124.24214 | 24 ft | 13 kts | 150° |
| 2026-04-17 23:51 | 43.41213 | -124.24149 | 24 ft | 13 kts | 149° |
| 2026-04-17 23:51 | 43.41141 | -124.24092 | 26 ft | 11 kts | 148° |
| 2026-04-17 23:51 | 43.41074 | -124.24035 | 26 ft | 12 kts | 148° |
| 2026-04-17 23:52 | 43.41001 | -124.23978 | 26 ft | 12 kts | 150° |
| 2026-04-17 23:52 | 43.40930 | -124.23923 | 27 ft | 11 kts | 150° |
| 2026-04-17 23:52 | 43.40906 | -124.23849 | 27 ft | 9 kts | 69° |
| 2026-04-17 23:52 | 43.40943 | -124.23801 | 27 ft | 8 kts | 4° |
| 2026-04-17 23:53 | 43.41037 | -124.23868 | 27 ft | 33 kts | 330° |
| 2026-04-17 23:53 | 43.41371 | -124.24148 | 99 ft | 71 kts | 330° |
| 2026-04-17 23:53 | 43.41835 | -124.24564 | 287 ft | 87 kts | 327° |
| 2026-04-17 23:53 | 43.42083 | -124.25344 | 471 ft | 111 kts | 263° |
| 2026-04-17 23:54 | 43.41578 | -124.26282 | 699 ft | 129 kts | 237° |
| 2026-04-17 23:54 | 43.41115 | -124.27345 | 926 ft | 130 kts | 264° |
| 2026-04-17 23:54 | 43.40986 | -124.28562 | 1175 ft | 127 kts | 268° |
| 2026-04-17 23:54 | 43.40881 | -124.29773 | 1407 ft | 127 kts | 273° |
| 2026-04-17 23:55 | 43.41231 | -124.30780 | 1579 ft | 114 kts | 332° |
| 2026-04-17 23:55 | 43.41944 | -124.30678 | 1756 ft | 111 kts | 41° |
| 2026-04-17 23:55 | 43.42057 | -124.29635 | 1944 ft | 122 kts | 101° |
| 2026-04-17 23:55 | 43.41910 | -124.28525 | 2171 ft | 115 kts | 83° |
| 2026-04-17 23:56 | 43.41932 | -124.27412 | 2413 ft | 120 kts | 87° |
| 2026-04-17 23:56 | 43.41909 | -124.26284 | 2637 ft | 115 kts | 88° |
| 2026-04-17 23:56 | 43.41876 | -124.25199 | 2868 ft | 112 kts | 90° |
| 2026-04-17 23:56 | 43.41839 | -124.24094 | 3096 ft | 119 kts | 92° |
| 2026-04-17 23:57 | 43.41795 | -124.22966 | 3327 ft | 118 kts | 92° |
| 2026-04-17 23:57 | 43.41751 | -124.21840 | 3553 ft | 118 kts | 93° |
| 2026-04-17 23:57 | 43.41706 | -124.20722 | 3774 ft | 116 kts | 93° |
| 2026-04-17 23:57 | 43.41663 | -124.19620 | 3997 ft | 115 kts | 94° |
| 2026-04-17 23:58 | 43.41619 | -124.18519 | 4227 ft | 117 kts | 95° |
| 2026-04-17 23:58 | 43.41576 | -124.17376 | 4458 ft | 121 kts | 93° |
| 2026-04-17 23:58 | 43.41890 | -124.16321 | 4658 ft | 124 kts | 48° |
| 2026-04-17 23:58 | 43.42512 | -124.15552 | 4877 ft | 119 kts | 44° |
| 2026-04-17 23:59 | 43.43123 | -124.14769 | 5106 ft | 122 kts | 45° |
| 2026-04-17 23:59 | 43.43741 | -124.13962 | 5327 ft | 122 kts | 45° |
| 2026-04-17 23:59 | 43.44362 | -124.13147 | 5558 ft | 122 kts | 45° |
| 2026-04-17 23:59 | 43.44993 | -124.12310 | 5800 ft | 129 kts | 44° |
| 2026-04-18 00:00 | 43.45639 | -124.11460 | 6026 ft | 126 kts | 44° |
| 2026-04-18 00:00 | 43.46262 | -124.10640 | 6253 ft | 122 kts | 44° |
| 2026-04-18 00:00 | 43.46867 | -124.09841 | 6475 ft | 119 kts | 43° |
| 2026-04-18 00:00 | 43.47447 | -124.09076 | 6694 ft | 115 kts | 43° |
| 2026-04-18 00:01 | 43.48020 | -124.08319 | 6900 ft | 113 kts | 42° |
| 2026-04-18 00:01 | 43.48572 | -124.07590 | 7113 ft | 108 kts | 42° |
| 2026-04-18 00:01 | 43.49102 | -124.06889 | 7325 ft | 103 kts | 41° |
| 2026-04-18 00:01 | 43.49612 | -124.06216 | 7535 ft | 99 kts | 40° |
| 2026-04-18 00:02 | 43.50101 | -124.05569 | 7743 ft | 96 kts | 40° |
| 2026-04-18 00:02 | 43.50572 | -124.04948 | 7950 ft | 90 kts | 39° |
| 2026-04-18 00:02 | 43.51018 | -124.04359 | 8162 ft | 89 kts | 38° |
| 2026-04-18 00:02 | 43.51478 | -124.03753 | 8332 ft | 93 kts | 38° |
| 2026-04-18 00:03 | 43.51954 | -124.03122 | 8523 ft | 97 kts | 38° |
| 2026-04-18 00:03 | 43.52450 | -124.02465 | 8714 ft | 101 kts | 38° |
| 2026-04-18 00:03 | 43.52966 | -124.01780 | 8906 ft | 105 kts | 39° |
| 2026-04-18 00:03 | 43.53502 | -124.01068 | 9101 ft | 109 kts | 39° |
| 2026-04-18 00:04 | 43.54056 | -124.00333 | 9294 ft | 112 kts | 39° |
| 2026-04-18 00:04 | 43.54629 | -123.99573 | 9487 ft | 115 kts | 39° |
| 2026-04-18 00:04 | 43.55211 | -123.98799 | 9683 ft | 117 kts | 39° |
| 2026-04-18 00:04 | 43.55806 | -123.98011 | 9870 ft | 120 kts | 39° |
| 2026-04-18 00:05 | 43.56420 | -123.97196 | 9972 ft | 129 kts | 39° |
| 2026-04-18 00:05 | 43.57094 | -123.96302 | 9989 ft | 140 kts | 40° |
| 2026-04-18 00:05 | 43.57811 | -123.95347 | 9986 ft | 147 kts | 40° |
| 2026-04-18 00:05 | 43.58559 | -123.94351 | 9989 ft | 152 kts | 40° |
| 2026-04-18 00:06 | 43.59325 | -123.93331 | 9985 ft | 153 kts | 40° |
| 2026-04-18 00:06 | 43.60094 | -123.92307 | 9986 ft | 154 kts | 40° |
| 2026-04-18 00:06 | 43.60868 | -123.91276 | 9983 ft | 155 kts | 40° |
| 2026-04-18 00:06 | 43.61645 | -123.90247 | 9988 ft | 155 kts | 40° |
| 2026-04-18 00:07 | 43.62422 | -123.89212 | 9988 ft | 155 kts | 40° |
| 2026-04-18 00:07 | 43.63198 | -123.88179 | 9986 ft | 155 kts | 40° |
| 2026-04-18 00:07 | 43.63977 | -123.87141 | 9987 ft | 156 kts | 40° |
| 2026-04-18 00:07 | 43.64756 | -123.86104 | 9990 ft | 156 kts | 40° |
| 2026-04-18 00:08 | 43.65532 | -123.85069 | 9992 ft | 155 kts | 41° |
| 2026-04-18 00:08 | 43.66316 | -123.84023 | 9982 ft | 157 kts | 41° |
| 2026-04-18 00:08 | 43.67100 | -123.82977 | 9981 ft | 156 kts | 41° |
| 2026-04-18 00:08 | 43.67880 | -123.81936 | 9985 ft | 156 kts | 41° |
| 2026-04-18 00:09 | 43.68663 | -123.80890 | 9982 ft | 156 kts | 40° |
| 2026-04-18 00:09 | 43.69439 | -123.79854 | 9982 ft | 155 kts | 41° |
| 2026-04-18 00:09 | 43.70213 | -123.78820 | 9983 ft | 155 kts | 40° |
| 2026-04-18 00:09 | 43.70985 | -123.77789 | 9977 ft | 154 kts | 41° |
| 2026-04-18 00:10 | 43.71756 | -123.76759 | 9985 ft | 155 kts | 41° |
| 2026-04-18 00:10 | 43.72534 | -123.75716 | 9987 ft | 156 kts | 41° |
| 2026-04-18 00:10 | 43.73316 | -123.74673 | 9985 ft | 156 kts | 41° |
| 2026-04-18 00:10 | 43.74098 | -123.73629 | 9988 ft | 158 kts | 41° |
| 2026-04-18 00:11 | 43.74886 | -123.72572 | 9986 ft | 158 kts | 41° |
| 2026-04-18 00:11 | 43.75672 | -123.71516 | 9991 ft | 157 kts | 41° |
| 2026-04-18 00:11 | 43.76456 | -123.70465 | 9987 ft | 157 kts | 41° |
| 2026-04-18 00:11 | 43.77237 | -123.69419 | 9987 ft | 156 kts | 41° |
| 2026-04-18 00:12 | 43.78028 | -123.68365 | 9987 ft | 160 kts | 41° |
| 2026-04-18 00:12 | 43.78821 | -123.67296 | 9987 ft | 160 kts | 41° |
| 2026-04-18 00:12 | 43.79620 | -123.66221 | 9988 ft | 160 kts | 41° |
| 2026-04-18 00:12 | 43.80145 | -123.65515 | 9984 ft | 158 kts | 41° |
| 2026-04-18 00:13 | 43.80937 | -123.64455 | 9984 ft | 158 kts | 41° |
| 2026-04-18 00:13 | 43.81726 | -123.63395 | 9992 ft | 159 kts | 41° |
| 2026-04-18 00:13 | 43.82519 | -123.62330 | 9989 ft | 158 kts | 41° |
| 2026-04-18 00:13 | 43.83225 | -123.61378 | 9988 ft | 157 kts | 41° |
| 2026-04-18 00:14 | 43.84013 | -123.60322 | 9985 ft | 158 kts | 41° |
| 2026-04-18 00:14 | 43.84801 | -123.59260 | 9989 ft | 158 kts | 41° |
| 2026-04-18 00:14 | 43.85586 | -123.58202 | 9994 ft | 157 kts | 41° |
| 2026-04-18 00:14 | 43.86370 | -123.57147 | 9990 ft | 157 kts | 41° |
| 2026-04-18 00:15 | 43.87154 | -123.56091 | 9989 ft | 157 kts | 41° |
| 2026-04-18 00:15 | 43.87935 | -123.55038 | 9988 ft | 157 kts | 41° |
| 2026-04-18 00:15 | 43.88716 | -123.53985 | 9986 ft | 156 kts | 41° |
| 2026-04-18 00:15 | 43.89496 | -123.52934 | 9995 ft | 157 kts | 41° |
| 2026-04-18 00:16 | 43.90284 | -123.51864 | 9991 ft | 158 kts | 41° |
| 2026-04-18 00:16 | 43.91081 | -123.50796 | 9994 ft | 161 kts | 41° |
| 2026-04-18 00:16 | 43.91781 | -123.49854 | 9989 ft | 163 kts | 42° |
| 2026-04-18 00:16 | 43.92599 | -123.48745 | 9993 ft | 166 kts | 42° |
| 2026-04-18 00:17 | 43.93405 | -123.47653 | 9987 ft | 162 kts | 42° |
| 2026-04-18 00:17 | 43.94209 | -123.46568 | 9985 ft | 160 kts | 41° |
| 2026-04-18 00:17 | 43.95007 | -123.45490 | 9984 ft | 160 kts | 41° |
| 2026-04-18 00:17 | 43.95800 | -123.44417 | 9983 ft | 159 kts | 41° |
| 2026-04-18 00:18 | 43.96589 | -123.43349 | 9982 ft | 159 kts | 42° |
| 2026-04-18 00:18 | 43.97381 | -123.42275 | 9986 ft | 160 kts | 42° |
| 2026-04-18 00:18 | 43.98181 | -123.41190 | 9980 ft | 160 kts | 41° |
| 2026-04-18 00:18 | 43.98977 | -123.40115 | 9981 ft | 159 kts | 42° |
| 2026-04-18 00:19 | 43.99767 | -123.39042 | 9978 ft | 159 kts | 42° |
| 2026-04-18 00:19 | 44.00559 | -123.37971 | 9981 ft | 160 kts | 41° |
| 2026-04-18 00:19 | 44.01355 | -123.36887 | 9982 ft | 160 kts | 42° |
| 2026-04-18 00:19 | 44.02152 | -123.35808 | 9977 ft | 159 kts | 42° |
| 2026-04-18 00:20 | 44.02944 | -123.34732 | 9981 ft | 160 kts | 42° |
| 2026-04-18 00:20 | 44.03742 | -123.33651 | 9981 ft | 160 kts | 42° |
| 2026-04-18 00:20 | 44.04536 | -123.32572 | 9976 ft | 159 kts | 42° |
| 2026-04-18 00:20 | 44.05323 | -123.31499 | 9976 ft | 158 kts | 42° |
| 2026-04-18 00:21 | 44.06107 | -123.30433 | 9971 ft | 158 kts | 42° |
| 2026-04-18 00:21 | 44.06890 | -123.29369 | 9973 ft | 157 kts | 43° |
| 2026-04-18 00:21 | 44.07673 | -123.28304 | 9972 ft | 157 kts | 43° |
| 2026-04-18 00:21 | 44.08456 | -123.27238 | 9973 ft | 158 kts | 43° |
| 2026-04-18 00:22 | 44.09240 | -123.26170 | 9974 ft | 158 kts | 43° |
| 2026-04-18 00:22 | 44.10026 | -123.25099 | 9974 ft | 158 kts | 43° |
| 2026-04-18 00:22 | 44.10812 | -123.24028 | 9973 ft | 158 kts | 43° |
| 2026-04-18 00:22 | 44.11596 | -123.22957 | 9976 ft | 158 kts | 43° |
| 2026-04-18 00:23 | 44.12162 | -123.21664 | 9968 ft | 158 kts | 75° |
| 2026-04-18 00:23 | 44.12265 | -123.20150 | 9977 ft | 157 kts | 89° |
| 2026-04-18 00:23 | 44.12328 | -123.18627 | 9976 ft | 158 kts | 87° |
| 2026-04-18 00:23 | 44.12416 | -123.17107 | 9978 ft | 158 kts | 86° |
| 2026-04-18 00:24 | 44.12511 | -123.15575 | 9978 ft | 159 kts | 86° |
| 2026-04-18 00:24 | 44.12606 | -123.14048 | 9980 ft | 159 kts | 86° |
| 2026-04-18 00:24 | 44.12701 | -123.12519 | 9982 ft | 159 kts | 86° |
| 2026-04-18 00:24 | 44.12878 | -123.11006 | 9966 ft | 160 kts | 70° |
| 2026-04-18 00:25 | 44.13581 | -123.09848 | 9971 ft | 158 kts | 32° |
| 2026-04-18 00:25 | 44.14563 | -123.09186 | 9973 ft | 157 kts | 24° |
| 2026-04-18 00:25 | 44.15531 | -123.08483 | 9975 ft | 157 kts | 27° |
| 2026-04-18 00:25 | 44.16472 | -123.07711 | 9980 ft | 157 kts | 30° |
| 2026-04-18 00:26 | 44.17404 | -123.06910 | 9979 ft | 158 kts | 30° |
| 2026-04-18 00:26 | 44.18336 | -123.06100 | 9982 ft | 158 kts | 30° |
| 2026-04-18 00:26 | 44.19270 | -123.05289 | 9987 ft | 159 kts | 30° |
| 2026-04-18 00:26 | 44.20209 | -123.04474 | 9987 ft | 159 kts | 31° |
| 2026-04-18 00:27 | 44.21147 | -123.03659 | 9987 ft | 159 kts | 30° |
| 2026-04-18 00:27 | 44.22089 | -123.02842 | 9992 ft | 160 kts | 30° |
| 2026-04-18 00:27 | 44.23036 | -123.02018 | 9993 ft | 160 kts | 31° |
| 2026-04-18 00:27 | 44.23985 | -123.01191 | 9995 ft | 161 kts | 31° |
| 2026-04-18 00:28 | 44.24935 | -123.00363 | 9993 ft | 161 kts | 31° |
| 2026-04-18 00:28 | 44.25879 | -122.99546 | 9994 ft | 159 kts | 31° |
| 2026-04-18 00:28 | 44.26815 | -122.98730 | 9995 ft | 159 kts | 31° |
| 2026-04-18 00:28 | 44.27757 | -122.97910 | 9997 ft | 160 kts | 31° |
| 2026-04-18 00:29 | 44.28698 | -122.97090 | 9994 ft | 159 kts | 31° |
| 2026-04-18 00:29 | 44.29627 | -122.96280 | 10001 ft | 160 kts | 31° |
| 2026-04-18 00:29 | 44.30569 | -122.95459 | 10001 ft | 160 kts | 31° |
| 2026-04-18 00:29 | 44.31514 | -122.94635 | 10000 ft | 160 kts | 31° |
| 2026-04-18 00:30 | 44.32460 | -122.93809 | 10003 ft | 160 kts | 31° |
| 2026-04-18 00:30 | 44.33402 | -122.92987 | 10000 ft | 159 kts | 31° |
| 2026-04-18 00:30 | 44.34339 | -122.92169 | 10002 ft | 159 kts | 31° |
| 2026-04-18 00:30 | 44.35278 | -122.91349 | 10005 ft | 159 kts | 31° |
| 2026-04-18 00:31 | 44.36218 | -122.90528 | 10007 ft | 159 kts | 31° |
| 2026-04-18 00:31 | 44.37159 | -122.89705 | 10005 ft | 160 kts | 31° |
| 2026-04-18 00:31 | 44.38103 | -122.88880 | 10007 ft | 160 kts | 31° |
| 2026-04-18 00:31 | 44.39050 | -122.88051 | 10009 ft | 161 kts | 31° |
| 2026-04-18 00:32 | 44.40000 | -122.87220 | 10014 ft | 161 kts | 31° |
| 2026-04-18 00:32 | 44.40949 | -122.86389 | 10010 ft | 160 kts | 31° |
| 2026-04-18 00:32 | 44.41891 | -122.85565 | 10008 ft | 159 kts | 31° |
| 2026-04-18 00:32 | 44.42828 | -122.84743 | 10009 ft | 159 kts | 31° |
| 2026-04-18 00:33 | 44.43764 | -122.83923 | 10010 ft | 159 kts | 31° |
| 2026-04-18 00:33 | 44.44702 | -122.83100 | 10014 ft | 160 kts | 31° |
| 2026-04-18 00:33 | 44.45644 | -122.82274 | 10007 ft | 160 kts | 31° |
| 2026-04-18 00:33 | 44.46584 | -122.81449 | 10008 ft | 160 kts | 31° |
| 2026-04-18 00:34 | 44.47525 | -122.80623 | 10008 ft | 160 kts | 31° |
| 2026-04-18 00:34 | 44.48466 | -122.79796 | 10011 ft | 160 kts | 31° |
| 2026-04-18 00:34 | 44.49408 | -122.78969 | 10015 ft | 160 kts | 31° |
| 2026-04-18 00:34 | 44.50355 | -122.78141 | 10013 ft | 161 kts | 31° |
| 2026-04-18 00:35 | 44.51298 | -122.77308 | 10013 ft | 160 kts | 32° |
| 2026-04-18 00:35 | 44.52241 | -122.76477 | 10014 ft | 161 kts | 31° |
| 2026-04-18 00:35 | 44.53187 | -122.75645 | 10015 ft | 161 kts | 32° |
| 2026-04-18 00:35 | 44.54140 | -122.74805 | 10009 ft | 162 kts | 32° |
| 2026-04-18 00:36 | 44.55088 | -122.73972 | 10010 ft | 160 kts | 32° |
| 2026-04-18 00:36 | 44.56034 | -122.73140 | 10010 ft | 160 kts | 32° |
| 2026-04-18 00:36 | 44.56976 | -122.72309 | 10008 ft | 160 kts | 32° |
| 2026-04-18 00:36 | 44.57921 | -122.71476 | 10010 ft | 160 kts | 32° |
| 2026-04-18 00:37 | 44.58946 | -122.70914 | 9996 ft | 159 kts | 6° |
| 2026-04-18 00:37 | 44.60044 | -122.70827 | 10002 ft | 158 kts | 360° |
| 2026-04-18 00:37 | 44.61140 | -122.70747 | 10000 ft | 158 kts | 1° |
| 2026-04-18 00:37 | 44.62237 | -122.70644 | 10001 ft | 158 kts | 2° |
| 2026-04-18 00:38 | 44.63332 | -122.70534 | 10002 ft | 158 kts | 2° |
| 2026-04-18 00:38 | 44.64428 | -122.70424 | 10000 ft | 158 kts | 2° |
| 2026-04-18 00:38 | 44.65528 | -122.70314 | 10003 ft | 159 kts | 2° |
| 2026-04-18 00:38 | 44.66630 | -122.70203 | 10002 ft | 159 kts | 2° |
| 2026-04-18 00:39 | 44.67728 | -122.70093 | 10000 ft | 158 kts | 2° |
| 2026-04-18 00:39 | 44.68824 | -122.69982 | 9998 ft | 158 kts | 2° |
| 2026-04-18 00:39 | 44.69916 | -122.69873 | 10004 ft | 158 kts | 2° |
| 2026-04-18 00:39 | 44.71016 | -122.69763 | 10001 ft | 159 kts | 2° |
| 2026-04-18 00:40 | 44.72119 | -122.69652 | 10003 ft | 159 kts | 2° |
| 2026-04-18 00:40 | 44.73228 | -122.69540 | 10008 ft | 160 kts | 2° |
| 2026-04-18 00:40 | 44.74337 | -122.69429 | 10004 ft | 160 kts | 2° |
| 2026-04-18 00:40 | 44.75447 | -122.69317 | 10005 ft | 160 kts | 2° |
| 2026-04-18 00:41 | 44.76559 | -122.69206 | 10006 ft | 161 kts | 2° |
| 2026-04-18 00:41 | 44.77671 | -122.69094 | 10001 ft | 159 kts | 2° |
| 2026-04-18 00:41 | 44.78758 | -122.68985 | 10004 ft | 158 kts | 2° |
| 2026-04-18 00:41 | 44.79864 | -122.68873 | 10000 ft | 160 kts | 2° |
| 2026-04-18 00:42 | 44.80974 | -122.68762 | 10002 ft | 160 kts | 2° |
| 2026-04-18 00:42 | 44.82084 | -122.68651 | 10000 ft | 160 kts | 2° |
| 2026-04-18 00:42 | 44.83194 | -122.68538 | 10002 ft | 161 kts | 2° |
| 2026-04-18 00:42 | 44.84307 | -122.68426 | 10007 ft | 161 kts | 2° |
| 2026-04-18 00:43 | 44.85421 | -122.68313 | 10007 ft | 160 kts | 2° |
| 2026-04-18 00:43 | 44.86530 | -122.68201 | 10004 ft | 159 kts | 2° |
| 2026-04-18 00:43 | 44.87633 | -122.68090 | 10003 ft | 159 kts | 2° |
| 2026-04-18 00:43 | 44.88750 | -122.67977 | 10009 ft | 164 kts | 2° |
| 2026-04-18 00:44 | 44.89885 | -122.67862 | 9996 ft | 162 kts | 2° |
| 2026-04-18 00:44 | 44.91001 | -122.67749 | 9998 ft | 160 kts | 2° |
| 2026-04-18 00:44 | 44.92111 | -122.67637 | 9996 ft | 160 kts | 2° |
| 2026-04-18 00:44 | 44.93217 | -122.67526 | 9997 ft | 159 kts | 2° |
| 2026-04-18 00:45 | 44.94330 | -122.67412 | 10002 ft | 162 kts | 2° |
| 2026-04-18 00:45 | 44.95454 | -122.67296 | 10005 ft | 163 kts | 2° |
| 2026-04-18 00:45 | 44.96586 | -122.67185 | 10004 ft | 163 kts | 2° |
| 2026-04-18 00:45 | 44.97716 | -122.67071 | 10004 ft | 162 kts | 2° |
| 2026-04-18 00:46 | 44.98828 | -122.66958 | 10000 ft | 159 kts | 2° |
| 2026-04-18 00:46 | 44.99925 | -122.66847 | 10000 ft | 158 kts | 2° |
| 2026-04-18 00:46 | 45.01027 | -122.66734 | 10009 ft | 161 kts | 2° |
| 2026-04-18 00:46 | 45.02147 | -122.66619 | 10009 ft | 161 kts | 2° |
| 2026-04-18 00:47 | 45.03263 | -122.66493 | 10000 ft | 161 kts | 6° |
| 2026-04-18 00:47 | 45.04288 | -122.65863 | 10006 ft | 161 kts | 27° |
| 2026-04-18 00:47 | 45.05372 | -122.65630 | 9998 ft | 158 kts | 350° |
| 2026-04-18 00:47 | 45.06452 | -122.65868 | 10000 ft | 158 kts | 355° |
| 2026-04-18 00:48 | 45.07552 | -122.65830 | 10000 ft | 159 kts | 1° |
| 2026-04-18 00:48 | 45.08658 | -122.65731 | 9957 ft | 161 kts | 2° |
| 2026-04-18 00:48 | 45.09747 | -122.65628 | 9757 ft | 154 kts | 2° |
| 2026-04-18 00:49 | 45.11821 | -122.65618 | 9333 ft | 147 kts | 336° |
| 2026-04-18 00:49 | 45.12433 | -122.66662 | 9079 ft | 140 kts | 280° |
| 2026-04-18 00:49 | 45.12416 | -122.68008 | 8891 ft | 136 kts | 264° |
| 2026-04-18 00:49 | 45.12375 | -122.69343 | 8708 ft | 135 kts | 264° |
| 2026-04-18 00:50 | 45.12337 | -122.70670 | 8530 ft | 135 kts | 265° |
| 2026-04-18 00:50 | 45.12429 | -122.71995 | 8331 ft | 140 kts | 287° |
| 2026-04-18 00:50 | 45.13086 | -122.73023 | 8123 ft | 146 kts | 328° |
| 2026-04-18 00:50 | 45.14076 | -122.73248 | 7906 ft | 147 kts | 8° |
| 2026-04-18 00:51 | 45.14943 | -122.72550 | 7695 ft | 145 kts | 49° |
| 2026-04-18 00:51 | 45.15546 | -122.71428 | 7521 ft | 143 kts | 51° |
| 2026-04-18 00:51 | 45.16374 | -122.70616 | 7339 ft | 146 kts | 30° |
| 2026-04-18 00:51 | 45.17275 | -122.69951 | 7169 ft | 145 kts | 28° |
| 2026-04-18 00:52 | 45.18153 | -122.69310 | 6958 ft | 140 kts | 28° |
| 2026-04-18 00:52 | 45.19014 | -122.68679 | 6707 ft | 139 kts | 29° |
| 2026-04-18 00:52 | 45.19870 | -122.68045 | 6456 ft | 139 kts | 29° |
| 2026-04-18 00:52 | 45.20722 | -122.67413 | 6188 ft | 137 kts | 29° |
| 2026-04-18 00:53 | 45.21561 | -122.66793 | 5931 ft | 135 kts | 29° |
| 2026-04-18 00:53 | 45.22399 | -122.66173 | 5683 ft | 137 kts | 29° |
| 2026-04-18 00:53 | 45.23251 | -122.65537 | 5427 ft | 138 kts | 30° |
| 2026-04-18 00:53 | 45.24094 | -122.64914 | 5181 ft | 137 kts | 29° |
| 2026-04-18 00:54 | 45.24996 | -122.64575 | 4962 ft | 136 kts | 357° |
| 2026-04-18 00:54 | 45.25846 | -122.65104 | 4740 ft | 134 kts | 320° |
| 2026-04-18 00:54 | 45.26552 | -122.65961 | 4566 ft | 134 kts | 319° |
| 2026-04-18 00:54 | 45.27283 | -122.66783 | 4381 ft | 133 kts | 321° |
| 2026-04-18 00:55 | 45.27906 | -122.67458 | 4234 ft | 129 kts | 322° |
| 2026-04-18 00:55 | 45.28591 | -122.68190 | 4107 ft | 125 kts | 322° |
| 2026-04-18 00:55 | 45.29274 | -122.68918 | 4016 ft | 120 kts | 323° |
| 2026-04-18 00:55 | 45.29940 | -122.69627 | 4014 ft | 121 kts | 322° |
| 2026-04-18 00:56 | 45.30616 | -122.70345 | 4011 ft | 121 kts | 322° |
| 2026-04-18 00:56 | 45.31289 | -122.71062 | 4011 ft | 120 kts | 322° |
| 2026-04-18 00:56 | 45.31960 | -122.71775 | 4014 ft | 121 kts | 322° |
| 2026-04-18 00:56 | 45.32632 | -122.72490 | 4014 ft | 122 kts | 322° |
| 2026-04-18 00:57 | 45.33316 | -122.73218 | 4016 ft | 123 kts | 322° |
| 2026-04-18 00:57 | 45.33941 | -122.73883 | 4016 ft | 124 kts | 323° |
| 2026-04-18 00:57 | 45.34643 | -122.74630 | 4016 ft | 123 kts | 322° |
| 2026-04-18 00:57 | 45.35331 | -122.75364 | 4012 ft | 122 kts | 322° |
| 2026-04-18 00:58 | 45.36000 | -122.76076 | 4010 ft | 122 kts | 322° |
| 2026-04-18 00:58 | 45.36683 | -122.76804 | 4009 ft | 123 kts | 322° |
| 2026-04-18 00:58 | 45.37360 | -122.77527 | 3996 ft | 122 kts | 322° |
| 2026-04-18 00:58 | 45.38063 | -122.78273 | 3898 ft | 130 kts | 323° |
| 2026-04-18 00:59 | 45.38805 | -122.79042 | 3777 ft | 134 kts | 323° |
| 2026-04-18 00:59 | 45.39551 | -122.79818 | 3689 ft | 128 kts | 323° |
| 2026-04-18 00:59 | 45.40253 | -122.80550 | 3551 ft | 124 kts | 323° |
| 2026-04-18 00:59 | 45.40944 | -122.81272 | 3381 ft | 122 kts | 323° |
| 2026-04-18 01:00 | 45.41398 | -122.81746 | 3264 ft | 117 kts | 324° |
| 2026-04-18 01:00 | 45.42031 | -122.82408 | 3105 ft | 113 kts | 324° |
| 2026-04-18 01:00 | 45.42655 | -122.83059 | 2949 ft | 109 kts | 325° |
| 2026-04-18 01:00 | 45.43268 | -122.83700 | 2792 ft | 107 kts | 325° |
| 2026-04-18 01:01 | 45.43856 | -122.84315 | 2647 ft | 107 kts | 326° |
| 2026-04-18 01:01 | 45.44447 | -122.84932 | 2495 ft | 104 kts | 326° |
| 2026-04-18 01:01 | 45.45022 | -122.85536 | 2358 ft | 103 kts | 326° |
| 2026-04-18 01:01 | 45.45608 | -122.86147 | 2217 ft | 106 kts | 326° |
| 2026-04-18 01:02 | 45.46196 | -122.86763 | 2072 ft | 104 kts | 327° |
| 2026-04-18 01:02 | 45.46771 | -122.87362 | 1929 ft | 101 kts | 326° |
| 2026-04-18 01:02 | 45.47327 | -122.87945 | 1786 ft | 99 kts | 327° |
| 2026-04-18 01:02 | 45.47874 | -122.88518 | 1647 ft | 96 kts | 326° |
| 2026-04-18 01:03 | 45.48402 | -122.89071 | 1503 ft | 92 kts | 326° |
| 2026-04-18 01:03 | 45.48913 | -122.89606 | 1371 ft | 88 kts | 326° |
| 2026-04-18 01:03 | 45.49393 | -122.90110 | 1253 ft | 86 kts | 326° |
| 2026-04-18 01:03 | 45.49879 | -122.90619 | 1123 ft | 88 kts | 326° |
| 2026-04-18 01:04 | 45.50372 | -122.91136 | 997 ft | 88 kts | 326° |
| 2026-04-18 01:04 | 45.50870 | -122.91656 | 871 ft | 88 kts | 326° |
| 2026-04-18 01:04 | 45.51365 | -122.92175 | 753 ft | 89 kts | 327° |
| 2026-04-18 01:04 | 45.51863 | -122.92697 | 632 ft | 88 kts | 327° |
| 2026-04-18 01:05 | 45.52353 | -122.93219 | 517 ft | 88 kts | 326° |
| 2026-04-18 01:05 | 45.52823 | -122.93729 | 409 ft | 82 kts | 326° |
| 2026-04-18 01:05 | 45.53262 | -122.94181 | 329 ft | 75 kts | 328° |
| 2026-04-18 01:05 | 45.53668 | -122.94603 | 216 ft | 66 kts | 329° |
| 2026-04-18 01:06 | 45.53988 | -122.94931 | 210 ft | 48 kts | 323° |
| 2026-04-18 01:06 | 45.54209 | -122.95162 | 214 ft | 16 kts | 315° |
| 2026-04-18 01:06 | 45.54207 | -122.95207 | 210 ft | 9 kts | 236° |
| 2026-04-18 01:06 | 45.54198 | -122.95226 | 210 ft | 0 kts | 239° |
| 2026-04-18 01:08 | 45.54184 | -122.95254 | 210 ft | 9 kts | 236° |
| 2026-04-18 01:09 | 45.54123 | -122.95268 | 205 ft | 12 kts | 143° |
| 2026-04-18 01:09 | 45.54057 | -122.95198 | 205 ft | 13 kts | 144° |
| 2026-04-18 01:09 | 45.53983 | -122.95119 | 204 ft | 13 kts | 143° |
| 2026-04-18 01:09 | 45.53908 | -122.95039 | 204 ft | 14 kts | 144° |
| 2026-04-18 01:10 | 45.53831 | -122.94959 | 204 ft | 14 kts | 144° |
| 2026-04-18 01:10 | 45.53755 | -122.94878 | 208 ft | 14 kts | 143° |
| 2026-04-18 01:10 | 45.53678 | -122.94799 | 204 ft | 13 kts | 143° |
| 2026-04-18 01:10 | 45.53605 | -122.94745 | 208 ft | 11 kts | 173° |
| 2026-04-18 01:11 | 45.53536 | -122.94746 | 204 ft | 7 kts | 233° |
| 2026-04-18 01:11 | 45.53522 | -122.94797 | 208 ft | 4 kts | 187° |
| 2026-04-18 01:11 | 45.53519 | -122.94798 | 206 ft | 0 kts | 181° |